Terminal Aerodrome Forecast
Issued by NWS

Home | Current Version | Previous Version | Text Only | Print | Product List | Glossary On
Versions: 1 2 3 4 5 6 7 8 9 10 11 12
413
FTUS44 KLIX 031728
TAFMCB
TAF
KMCB 031728Z 0318/0418 08011KT P6SM SHRA OVC060
      TEMPO 0321/0401 4SM RA OVC025
     FM040400 11011KT P6SM VCSH OVC025
     FM040700 10009KT P6SM SHRA OVC015
     FM041100 08007KT 5SM SHRA BR OVC008=

USA.gov is the U.S. government's official web portal to all federal, state and local government web resources and services.